Relevés horaires Bierset (Belgique)


Relevés horaires à Bierset - Lundi 18 Oct. 2021
Heure UTC1 Température [°C] Vent [km/h] Hum. [%] Pres.4 [hPa] Visi. [Km] Nébu. [octa] Préc.5 [mm] Cond.
2m. Res. Ros. Dir.2 Vit. Moy. Raf.3
23:00 13.2 12.6 9.9 S 9.3 9.3 18.5 80 1020.8(-0.4/3h) 30 8/8 -- --
22:00 13.5 12.9 9.7 S 9.3 11.1 18.5 78 1021(-0.2/3h) 30 8/8 -- --
21:00 13.8 12.8 9.4 S 13.0 13.0 18.5 75 1021.2(0.3/3h) 30 8/8 -- --
20:00 13.6 13 9.3 S 9.3 11.1 18.5 75 1021.2(0.1/3h) 30 7/8 -- --
19:00 13.9 13.1 9.0 S 11.1 11.1 18.5 72 1021.2(0.0/3h) 30 6/8 -- --
18:00 13.7 13.2 9.1 S 9.3 11.1 24.1 74 1020.9(-0.3/3h) 30 5/8 0/12h
--
17:00 14.0 13.8 9.3 S 7.4 9.3 13.0 73 1021.1(0.2/3h) 30 4/8 -- --
16:00 14.8 14.7 9.3 S 7.4 7.4 13.0 70 1021.2(-0.4/3h) 30 5/8 -- --
15:00 15.7 15.5 9.4 S 9.3 11.1 24.1 66 1021.1(-0.7/3h) 20 7/8 -- --
14:00 15.6 15.2 8.5 S 11.1 11.1 24.1 63 1020.8(-1.6/3h) 20 7/8 -- --
13:00 15.2 14.9 7.9 S 9.3 11.1 14.8 62 1021.6(-1.4/3h) 20 7/8 -- --
12:00 15.5 15.3 7.1 S 9.3 11.1 22.2 57 1021.8(-1.2/3h) 20 7/8 0/6h
--
11:00 14.0 13.5 6.2 S 9.3 11.1 20.4 59 1022.6(-0.4/3h) 20 6/8 -- --
10:00 12.2 11.1 5.8 S 11.1 11.1 16.7 65 1023.2(0.4/3h) 20 6/8 -- --
09:00 10.9 9.5 5.4 S 11.1 11.1 20.4 69 1023.4(0.8/3h) 20 6/8 -- --
08:00 8.9 7.9 5.1 SSE 7.4 9.3 14.8 77 1023.3(0.5/3h) 12 6/8 -- --
07:00 7.8 6.1 5.3 SSE 9.3 9.3 16.7 84 1023.1(0.7/3h) 10 5/8 -- --
06:00 6.8 5.9 5.1 SSE 5.6 7.4 18.5 89 1022.9(-0.2/3h) 9 2/8 0/12h
--
05:00 6.8 5.9 5.2 S 5.6 7.4 14.8 90 1023(0.2/3h) 11 3/8 -- --
04:00 7.2 5.9 5.3 S 7.4 7.4 16.7 88 1022.5(-0.5/3h) 11 0/8 -- --
03:00 7.5 6.2 5.6 SSE 7.4 7.4 16.7 88 1022.7(-0.5/3h) 12 1/8 -- --
02:00 7.2 6.4 5.7 SE 5.6 5.6 13.0 90 1022.8(-0.4/3h) 12 1/8 -- --
01:00 7.7 6.9 6.3 SSE 5.6 7.4 14.8 91 1023(0.1/3h) 13 1/8 -- --
00:00 8.7 8.1 7.1 SSE 5.6 7.4 13.0 90 1023.1(0.9/3h) 15 4/8 0/6h
0/24h
--

1 Coordinated Universal Time. Actuellement il est 11:00 locale et 09:00 UTC.

2 Le vent souffle depuis la direction indiquée vers la direction oposée.

3 Les rafales max. sont disponible 40 min après l'heure du relevé.

4 Pour les stations d'altitude (plus de 600m) le géopotentiel du niveau le plus proche de la pression obligatoire est indiqué.

5 Les stations disposant d'un diffuseur peuvent indiquer "trace". Cela signifie que des précipitations ont touchés le sol mais que la quantité est inférieure à 0.1 mm.

Récapitulatif de la journée
Température [°C] Vent [km/h] Ensoleillement4 [h] Precipitations totale5 [mm] Pression [Hpa]
Min1 Max.2 Moy.3 Max. Min Max.
6.6 16.1 9.6 24.1 0 h 0 min 0 1020.8 1023.4

1 Température minimale relevée entre 18:00 UTC la veille et 18:00 UTC le jour donné.

2 Température maximale relevée entre 06:00 UTC le jour donné et 06:00 UTC le lendemain.

3 Vent moyen de la journée basé sur les relevés horaires.

4 Ensoleillement en heures relevé entre 06:00 UTC la veille et 06:00 UTC le jour donné.

5 Précipitations totales tombées entre 06:00 UTC la jour donné et 06:00 UTC le lendemain.

Graphiques horaires